Time;durP1;ratioP1;P1;durP2;ratioP2;P2;SDS_P1;SDS_P2;PMS_P1;PMS_P2;Temp;Humidity;BMP_temperature;BMP_pressure;BME280_temperature;BME280_humidity;BME280_pressure;Samples;Min_cycle;Max_cycle;Signal;HPM_P1;HPM_P2
2022/06/08 00:01:37;;;;;;;12.77;6.50;;;;;;;;;;6249433;22;20012;-81
2022/06/08 00:04:03;;;;;;;10.25;6.45;;;;;;;;;;6274401;22;20389;-80
2022/06/08 00:06:29;;;;;;;11.20;7.60;;;;;;;;;;6248963;22;20086;-79
2022/06/08 00:08:54;;;;;;;11.25;6.78;;;;;;;;;;6274380;22;20051;-81
2022/06/08 00:11:19;;;;;;;12.45;6.88;;;;;;;;;;6248677;22;20033;-81
2022/06/08 00:13:45;;;;;;;9.80;7.60;;;;;;;;;;6275477;22;20004;-81
2022/06/08 00:16:11;;;;;;;11.48;7.28;;;;;;;;;;6274252;22;20000;-81
2022/06/08 00:18:36;;;;;;;9.60;7.20;;;;;;;;;;6248880;22;20000;-82
2022/06/08 00:21:02;;;;;;;10.40;7.60;;;;;;;;;;6274334;22;20003;-82
2022/06/08 00:23:27;;;;;;;12.77;8.35;;;;;;;;;;6274213;22;20085;-81
2022/06/08 00:25:53;;;;;;;15.88;7.78;;;;;;;;;;6275934;22;20026;-81
2022/06/08 00:28:18;;;;;;;9.68;7.43;;;;;;;;;;6274096;22;20004;-81
2022/06/08 00:30:44;;;;;;;11.98;7.65;;;;;;;;;;6275703;22;20056;-82
2022/06/08 00:33:10;;;;;;;12.00;8.00;;;;;;;;;;6248668;22;19995;-82
2022/06/08 00:35:35;;;;;;;9.88;7.07;;;;;;;;;;6275623;22;20007;-82
2022/06/08 00:38:01;;;;;;;13.10;8.30;;;;;;;;;;6275528;22;20388;-81
2022/06/08 00:40:40;;;;;;;11.73;7.65;;;;;;;;;;6275954;22;20419;-82
2022/06/08 00:43:05;;;;;;;15.05;8.20;;;;;;;;;;6250096;22;20082;-82
2022/06/08 00:45:31;;;;;;;10.02;7.90;;;;;;;;;;6249343;22;20008;-81
2022/06/08 00:47:59;;;;;;;11.35;7.53;;;;;;;;;;6249140;22;20012;-81
2022/06/08 00:50:31;;;;;;;14.13;8.50;;;;;;;;;;6276757;22;20000;-81
2022/06/08 00:52:57;;;;;;;10.07;7.90;;;;;;;;;;6274898;22;20015;-81
2022/06/08 00:55:24;;;;;;;11.38;8.13;;;;;;;;;;6252340;22;19999;-81
2022/06/08 00:57:58;;;;;;;10.30;8.15;;;;;;;;;;6252979;22;20323;-81
2022/06/08 01:00:25;;;;;;;11.05;8.05;;;;;;;;;;6230399;22;20014;-82
2022/06/08 01:02:51;;;;;;;10.65;8.43;;;;;;;;;;6283541;22;20000;-81
2022/06/08 01:05:30;;;;;;;14.55;8.48;;;;;;;;;;6278964;22;20003;-83
2022/06/08 01:07:58;;;;;;;12.48;8.05;;;;;;;;;;6296147;22;20012;-82
2022/06/08 01:10:27;;;;;;;11.43;8.73;;;;;;;;;;6222750;22;20016;-82
2022/06/08 01:12:52;;;;;;;9.93;8.43;;;;;;;;;;6243787;22;19991;-82
2022/06/08 01:15:21;;;;;;;11.88;7.97;;;;;;;;;;6199429;22;20085;-82
2022/06/08 01:17:46;;;;;;;16.27;8.05;;;;;;;;;;6223568;22;20003;-81
2022/06/08 01:20:12;;;;;;;12.05;8.57;;;;;;;;;;6223203;22;20057;-81
2022/06/08 01:22:38;;;;;;;10.50;8.20;;;;;;;;;;6223308;22;20149;-81
2022/06/08 01:25:04;;;;;;;14.98;7.95;;;;;;;;;;6248110;22;20114;-82
2022/06/08 01:27:40;;;;;;;11.80;8.43;;;;;;;;;;6222615;22;20004;-81
2022/06/08 01:30:19;;;;;;;13.77;8.40;;;;;;;;;;6222952;22;20015;-81
2022/06/08 01:33:03;;;;;;;11.93;8.88;;;;;;;;;;6248378;22;20323;-82
2022/06/08 01:35:41;;;;;;;13.95;8.98;;;;;;;;;;6275034;22;20350;-82
2022/06/08 01:38:35;;;;;;;14.88;9.43;;;;;;;;;;6248012;22;20006;-82
2022/06/08 01:41:13;;;;;;;13.55;8.90;;;;;;;;;;6251717;22;20011;-82
2022/06/08 01:44:13;;;;;;;19.83;9.13;;;;;;;;;;6248044;22;20389;-82
2022/06/08 01:47:14;;;;;;;16.25;8.52;;;;;;;;;;6247790;22;20028;-82
2022/06/08 01:49:54;;;;;;;11.00;8.05;;;;;;;;;;6222273;22;20003;-82
2022/06/08 01:52:30;;;;;;;11.35;8.20;;;;;;;;;;6247835;22;20057;-82
2022/06/08 01:55:34;;;;;;;9.48;7.47;;;;;;;;;;6274738;22;19995;-82
2022/06/08 01:58:17;;;;;;;11.48;8.75;;;;;;;;;;6215122;22;20380;-83
2022/06/08 02:00:46;;;;;;;12.10;9.13;;;;;;;;;;6223080;22;20019;-82
2022/06/08 02:03:19;;;;;;;16.15;8.90;;;;;;;;;;6198557;22;20113;-82
2022/06/08 02:06:11;;;;;;;13.82;9.43;;;;;;;;;;6248166;22;20476;-82
2022/06/08 02:08:47;;;;;;;15.00;8.95;;;;;;;;;;6255707;22;20338;-82
2022/06/08 02:11:39;;;;;;;14.10;8.95;;;;;;;;;;6223157;22;20014;-82
2022/06/08 02:14:21;;;;;;;16.77;9.10;;;;;;;;;;6247794;22;20423;-82
2022/06/08 02:16:54;;;;;;;12.35;8.80;;;;;;;;;;6250521;22;19999;-83
2022/06/08 02:19:26;;;;;;;12.35;8.20;;;;;;;;;;6247491;22;20031;-81
2022/06/08 02:22:06;;;;;;;15.43;8.38;;;;;;;;;;6257117;22;20473;-82
2022/06/08 02:24:40;;;;;;;21.27;9.15;;;;;;;;;;6286097;22;20059;-82
2022/06/08 02:27:11;;;;;;;19.73;7.90;;;;;;;;;;6286312;22;20086;-82
2022/06/08 02:29:41;;;;;;;14.85;7.93;;;;;;;;;;6275108;22;20011;-81
2022/06/08 02:34:28;;;;;;;12.77;7.00;;;;;;;;;;6247790;22;20008;-81
2022/06/08 02:34:57;;;;;;;8.70;7.05;;;;;;;;;;6273208;22;20010;-83
2022/06/08 02:37:25;;;;;;;10.98;7.10;;;;;;;;;;6247698;22;20071;-82
2022/06/08 02:40:03;;;;;;;8.32;6.45;;;;;;;;;;6247745;22;20019;-82
2022/06/08 02:42:32;;;;;;;10.55;6.45;;;;;;;;;;6249937;22;20056;-81
2022/06/08 02:45:23;;;;;;;10.32;6.97;;;;;;;;;;6248542;22;20324;-82
2022/06/08 02:47:50;;;;;;;10.70;6.28;;;;;;;;;;6273213;22;20026;-82
2022/06/08 02:50:18;;;;;;;6.88;6.18;;;;;;;;;;6222173;22;20160;-85
2022/06/08 02:52:45;;;;;;;12.75;7.97;;;;;;;;;;6273109;22;20026;-82
2022/06/08 02:56:03;;;;;;;13.95;9.13;;;;;;;;;;6247572;22;20010;-83
2022/06/08 02:58:43;;;;;;;18.30;9.20;;;;;;;;;;6264671;22;20007;-84
2022/06/08 03:01:12;;;;;;;16.77;8.90;;;;;;;;;;6247963;22;19999;-83
2022/06/08 03:03:42;;;;;;;15.43;9.32;;;;;;;;;;6223309;22;20007;-83
2022/06/08 03:06:10;;;;;;;18.52;9.60;;;;;;;;;;6247835;22;20013;-82
2022/06/08 03:08:39;;;;;;;22.23;10.20;;;;;;;;;;6247367;22;20035;-83
2022/06/08 03:11:05;;;;;;;15.68;9.55;;;;;;;;;;6247735;22;20003;-82
2022/06/08 03:13:39;;;;;;;14.05;9.90;;;;;;;;;;6272891;22;20419;-82
2022/06/08 03:16:06;;;;;;;12.23;9.30;;;;;;;;;;6222500;22;20012;-82
2022/06/08 03:18:31;;;;;;;16.02;10.20;;;;;;;;;;6222290;22;20373;-83
2022/06/08 03:20:58;;;;;;;19.75;10.55;;;;;;;;;;6274454;22;20003;-82
2022/06/08 03:23:23;;;;;;;13.40;8.95;;;;;;;;;;6247339;22;20007;-83
2022/06/08 03:25:49;;;;;;;17.73;9.85;;;;;;;;;;6272722;22;20000;-82
2022/06/08 03:28:14;;;;;;;16.33;9.50;;;;;;;;;;6247540;22;20074;-82
2022/06/08 03:30:41;;;;;;;18.17;10.23;;;;;;;;;;6274986;22;20092;-82
2022/06/08 03:33:06;;;;;;;13.73;9.13;;;;;;;;;;6275018;22;20004;-83
2022/06/08 03:35:32;;;;;;;20.05;9.50;;;;;;;;;;6249073;22;20319;-82
2022/06/08 03:37:59;;;;;;;15.35;9.98;;;;;;;;;;6274679;22;20069;-82
2022/06/08 03:40:24;;;;;;;16.33;9.60;;;;;;;;;;6276205;22;20075;-83
2022/06/08 03:42:50;;;;;;;20.13;9.95;;;;;;;;;;6274781;22;20316;-83
2022/06/08 03:45:15;;;;;;;12.73;9.13;;;;;;;;;;6276168;22;20000;-82
2022/06/08 03:47:43;;;;;;;17.55;9.82;;;;;;;;;;6274672;22;20405;-82
2022/06/08 03:50:10;;;;;;;16.75;9.25;;;;;;;;;;6249408;22;20430;-82
2022/06/08 03:52:37;;;;;;;16.05;9.10;;;;;;;;;;6249003;22;20197;-82
2022/06/08 03:55:04;;;;;;;19.75;9.27;;;;;;;;;;6274538;22;20043;-82
2022/06/08 03:57:31;;;;;;;15.38;8.73;;;;;;;;;;6274402;22;20012;-82
2022/06/08 03:59:56;;;;;;;12.40;8.13;;;;;;;;;;6249904;22;20057;-83
2022/06/08 04:02:23;;;;;;;10.15;8.25;;;;;;;;;;6248784;22;19999;-83
2022/06/08 04:04:48;;;;;;;12.48;7.57;;;;;;;;;;6249137;22;20004;-83
2022/06/08 04:07:14;;;;;;;10.02;7.10;;;;;;;;;;6274358;22;20003;-83
2022/06/08 04:09:39;;;;;;;13.98;7.40;;;;;;;;;;6275838;22;20338;-82
2022/06/08 04:12:05;;;;;;;9.27;7.15;;;;;;;;;;6285826;22;20065;-82
2022/06/08 04:14:30;;;;;;;11.77;8.82;;;;;;;;;;6227853;22;20015;-81
2022/06/08 04:16:56;;;;;;;17.48;8.50;;;;;;;;;;6277846;22;20007;-82
2022/06/08 04:19:24;;;;;;;19.17;9.55;;;;;;;;;;6249509;22;20385;-83
2022/06/08 04:21:49;;;;;;;18.23;9.20;;;;;;;;;;6289930;22;19991;-83
2022/06/08 04:24:16;;;;;;;19.40;9.48;;;;;;;;;;6248253;22;20016;-85
2022/06/08 04:26:41;;;;;;;18.30;9.00;;;;;;;;;;6212745;22;20014;-85
2022/06/08 04:29:07;;;;;;;14.90;9.40;;;;;;;;;;6241002;22;20007;-85
2022/06/08 04:31:34;;;;;;;20.02;9.40;;;;;;;;;;6263924;22;20011;-84
2022/06/08 04:34:00;;;;;;;19.63;9.45;;;;;;;;;;6299198;22;20003;-85
2022/06/08 04:36:25;;;;;;;16.90;9.30;;;;;;;;;;6298197;22;20008;-86
2022/06/08 04:38:51;;;;;;;16.83;10.13;;;;;;;;;;6247330;22;20054;-86
2022/06/08 04:41:16;;;;;;;20.65;10.07;;;;;;;;;;6241952;22;20075;-84
2022/06/08 04:43:42;;;;;;;13.82;9.63;;;;;;;;;;6271401;22;19995;-85
2022/06/08 04:46:08;;;;;;;27.25;8.20;;;;;;;;;;6220852;22;20007;-86
2022/06/08 04:48:40;;;;;;;13.95;8.73;;;;;;;;;;6270669;22;20098;-86
2022/06/08 04:51:08;;;;;;;19.13;7.85;;;;;;;;;;6297210;22;20006;-86
2022/06/08 04:54:03;;;;;;;20.08;7.60;;;;;;;;;;6251412;22;19991;-85
2022/06/08 04:56:32;;;;;;;17.13;7.97;;;;;;;;;;6274922;22;20027;-86
2022/06/08 05:06:36;;;;;;;17.33;7.60;;;;;;;;;;6069554;23;20362;-83
2022/06/08 05:09:16;;;;;;;11.05;8.07;;;;;;;;;;6266786;22;20012;-87
2022/06/08 05:12:26;;;;;;;9.87;8.47;;;;;;;;;;6045062;23;3950727;-88
2022/06/08 05:23:43;;;;;;;20.80;10.55;;;;;;;;;;6213732;23;20070;-75
2022/06/08 05:26:08;;;;;;;20.23;13.48;;;;;;;;;;6188428;23;20000;-75
2022/06/08 05:28:34;;;;;;;18.30;10.85;;;;;;;;;;6188850;23;20640;-74
2022/06/08 05:30:59;;;;;;;23.10;11.95;;;;;;;;;;6214602;23;20047;-77
2022/06/08 05:33:26;;;;;;;19.55;10.98;;;;;;;;;;6215471;23;20005;-77
2022/06/08 05:35:52;;;;;;;18.65;9.80;;;;;;;;;;6188233;23;20339;-77
2022/06/08 05:38:18;;;;;;;14.13;10.13;;;;;;;;;;6215205;23;20011;-78
2022/06/08 05:40:43;;;;;;;13.90;8.32;;;;;;;;;;6163478;23;20047;-78
2022/06/08 05:43:12;;;;;;;15.18;10.30;;;;;;;;;;6163388;23;20059;-77
2022/06/08 05:45:46;;;;;;;19.08;9.27;;;;;;;;;;6195460;23;20016;-79
2022/06/08 05:48:12;;;;;;;16.63;10.57;;;;;;;;;;6141893;23;20016;-78
2022/06/08 05:50:38;;;;;;;23.05;9.98;;;;;;;;;;6208711;23;20005;-76
2022/06/08 05:53:14;;;;;;;17.05;10.43;;;;;;;;;;6208321;23;20001;-78
2022/06/08 05:55:40;;;;;;;16.80;11.63;;;;;;;;;;6161040;23;20000;-77
2022/06/08 05:58:17;;;;;;;15.25;9.00;;;;;;;;;;6159855;23;20011;-80
2022/06/08 06:00:43;;;;;;;14.75;7.97;;;;;;;;;;6184172;23;20012;-77
2022/06/08 06:03:09;;;;;;;15.50;10.23;;;;;;;;;;6211954;23;20032;-77
2022/06/08 06:05:36;;;;;;;20.90;8.55;;;;;;;;;;6187016;23;19992;-82
2022/06/08 06:08:02;;;;;;;9.77;7.65;;;;;;;;;;6211773;23;20000;-81
2022/06/08 06:10:28;;;;;;;14.15;8.32;;;;;;;;;;6212486;23;20005;-78
2022/06/08 06:12:54;;;;;;;13.00;7.60;;;;;;;;;;6163243;23;20308;-77
2022/06/08 06:15:28;;;;;;;6.70;6.00;;;;;;;;;;6213281;23;20012;-78
2022/06/08 06:17:53;;;;;;;14.55;7.88;;;;;;;;;;6185559;23;20008;-79
2022/06/08 06:20:19;;;;;;;13.07;7.32;;;;;;;;;;6210120;23;20006;-77
2022/06/08 06:23:11;;;;;;;13.00;6.90;;;;;;;;;;6189598;23;20098;-78
2022/06/08 06:25:36;;;;;;;13.73;7.00;;;;;;;;;;6239030;23;20373;-78
2022/06/08 06:28:02;;;;;;;11.52;7.25;;;;;;;;;;6240585;22;20012;-77
2022/06/08 06:30:27;;;;;;;8.30;6.30;;;;;;;;;;6241264;23;20004;-79
2022/06/08 06:35:40;;;;;;;9.23;5.93;;;;;;;;;;6242027;22;20105;-78
2022/06/08 06:38:05;;;;;;;11.07;5.90;;;;;;;;;;6183043;23;20008;-76
2022/06/08 06:43:53;;;;;;;7.90;5.35;;;;;;;;;;6268440;22;20067;-76
2022/06/08 06:46:18;;;;;;;9.25;6.53;;;;;;;;;;6245134;22;20003;-81
2022/06/08 06:48:44;;;;;;;7.60;6.38;;;;;;;;;;6237598;22;20011;-78
2022/06/08 06:51:10;;;;;;;12.95;6.72;;;;;;;;;;6267012;22;20007;-76
2022/06/08 06:53:36;;;;;;;13.38;6.20;;;;;;;;;;6266169;22;20004;-79
2022/06/08 06:56:02;;;;;;;8.02;5.80;;;;;;;;;;6240855;22;20110;-78
2022/06/08 06:58:28;;;;;;;10.27;4.85;;;;;;;;;;6268684;22;20004;-76
2022/06/08 07:00:53;;;;;;;9.43;5.68;;;;;;;;;;6269150;22;20000;-75
2022/06/08 07:03:23;;;;;;;8.80;6.13;;;;;;;;;;6244900;22;20005;-77
2022/06/08 07:05:48;;;;;;;11.27;6.53;;;;;;;;;;6276041;22;20375;-76
2022/06/08 07:08:14;;;;;;;10.30;4.95;;;;;;;;;;6274457;22;20004;-79
2022/06/08 07:21:46;;;;;;;11.05;4.90;;;;;;;;;;6207949;22;20015;-75
2022/06/08 07:31:06;;;;;;;16.17;4.22;;;;;;;;;;6216833;22;20112;-78
2022/06/08 07:33:33;;;;;;;9.32;6.13;;;;;;;;;;6247366;22;20482;-78
2022/06/08 07:36:03;;;;;;;12.55;6.85;;;;;;;;;;6249213;22;20018;-78
2022/06/08 07:38:29;;;;;;;6.88;3.80;;;;;;;;;;6243794;22;20003;-80
2022/06/08 07:40:57;;;;;;;8.50;5.90;;;;;;;;;;6274274;22;20010;-77
2022/06/08 07:43:23;;;;;;;;;;;;;;;;;;6272329;22;20026;-79
2022/06/08 07:45:49;;;;;;;6.90;4.07;;;;;;;;;;6244863;22;20314;-80
2022/06/08 07:51:19;;;;;;;7.03;5.22;;;;;;;;;;6253754;22;20157;-79
2022/06/08 07:53:45;;;;;;;7.83;3.77;;;;;;;;;;6247481;22;20076;-79
2022/06/08 07:56:11;;;;;;;10.38;5.38;;;;;;;;;;6278934;22;20008;-78
2022/06/08 07:58:37;;;;;;;6.10;4.55;;;;;;;;;;6270717;22;19996;-79
2022/06/08 08:01:02;;;;;;;5.00;3.70;;;;;;;;;;6244645;22;20514;-80
2022/06/08 08:03:28;;;;;;;9.07;3.53;;;;;;;;;;6244322;22;20144;-81
2022/06/08 08:05:53;;;;;;;6.93;3.22;;;;;;;;;;6248144;22;20427;-78
2022/06/08 08:08:19;;;;;;;3.65;2.70;;;;;;;;;;6275323;22;20213;-82
2022/06/08 08:10:46;;;;;;;4.72;3.20;;;;;;;;;;6274088;22;20000;-79
2022/06/08 08:13:12;;;;;;;6.75;3.03;;;;;;;;;;6281946;22;19995;-79
2022/06/08 08:15:38;;;;;;;5.10;3.00;;;;;;;;;;6278994;22;20007;-78
2022/06/08 08:18:04;;;;;;;3.92;3.38;;;;;;;;;;6249079;22;20004;-79
2022/06/08 08:23:51;;;;;;;8.70;5.70;;;;;;;;;;6276081;22;20018;-81
2022/06/08 08:26:17;;;;;;;6.40;3.13;;;;;;;;;;6281186;22;20035;-82
2022/06/08 08:28:51;;;;;;;4.30;3.05;;;;;;;;;;6275618;22;20533;-81
2022/06/08 08:31:23;;;;;;;10.85;8.32;;;;;;;;;;6257150;22;20034;-82
2022/06/08 08:33:48;;;;;;;8.27;5.57;;;;;;;;;;6247251;22;20026;-80
2022/06/08 08:36:14;;;;;;;5.72;4.18;;;;;;;;;;6268675;22;20011;-80
2022/06/08 08:38:48;;;;;;;7.35;3.65;;;;;;;;;;6271205;22;20000;-81
2022/06/08 08:44:02;;;;;;;7.15;3.40;;;;;;;;;;6252002;22;20441;-80
2022/06/08 08:47:05;;;;;;;3.70;3.40;;;;;;;;;;6271692;22;20014;-81
2022/06/08 08:49:34;;;;;;;7.57;3.40;;;;;;;;;;6271383;22;20004;-81
2022/06/08 08:52:02;;;;;;;10.00;6.38;;;;;;;;;;6271383;22;20008;-79
2022/06/08 08:54:38;;;;;;;5.32;2.95;;;;;;;;;;6266935;22;20219;-82
2022/06/08 08:57:13;;;;;;;6.88;5.18;;;;;;;;;;6270081;22;20004;-80
2022/06/08 08:59:42;;;;;;;6.60;3.65;;;;;;;;;;6270160;22;20449;-79
2022/06/08 09:05:20;;;;;;;4.57;3.35;;;;;;;;;;6271961;22;20010;-78
2022/06/08 09:07:46;;;;;;;6.68;3.05;;;;;;;;;;6273966;22;20081;-78
2022/06/08 09:10:21;;;;;;;7.43;3.70;;;;;;;;;;6275466;22;20004;-78
2022/06/08 09:12:56;;;;;;;7.47;2.80;;;;;;;;;;6275326;22;20082;-79
2022/06/08 09:15:52;;;;;;;6.70;2.60;;;;;;;;;;6274684;22;20003;-79
2022/06/08 09:18:19;;;;;;;4.90;3.25;;;;;;;;;;6274368;22;20432;-80
2022/06/08 09:20:45;;;;;;;6.20;2.78;;;;;;;;;;6276196;22;20000;-80
2022/06/08 09:23:39;;;;;;;3.72;2.80;;;;;;;;;;6276312;22;20053;-78
2022/06/08 09:26:16;;;;;;;4.18;2.90;;;;;;;;;;6250835;22;20012;-79
2022/06/08 09:28:42;;;;;;;3.28;2.65;;;;;;;;;;6275275;22;20003;-81
2022/06/08 09:31:40;;;;;;;4.85;2.80;;;;;;;;;;6276191;22;20008;-80
2022/06/08 09:34:26;;;;;;;4.83;2.77;;;;;;;;;;6276883;22;20006;-80
2022/06/08 09:37:05;;;;;;;5.95;2.80;;;;;;;;;;6274985;22;20008;-78
2022/06/08 09:39:31;;;;;;;5.32;2.80;;;;;;;;;;6274754;22;20008;-79
2022/06/08 09:41:56;;;;;;;4.45;2.90;;;;;;;;;;6246544;22;20106;-79
2022/06/08 09:44:26;;;;;;;6.68;3.55;;;;;;;;;;6246873;22;20003;-80
2022/06/08 09:53:32;;;;;;;4.43;3.15;;;;;;;;;;6276781;22;20014;-77
2022/06/08 09:56:13;;;;;;;5.15;3.33;;;;;;;;;;6133313;23;20009;-77
2022/06/08 10:05:35;;;;;;;4.10;2.70;;;;;;;;;;6216289;22;20058;-78
2022/06/08 10:15:20;;;;;;;3.10;2.58;;;;;;;;;;6122456;23;20014;-81
2022/06/08 10:17:50;;;;;;;6.13;2.97;;;;;;;;;;6098488;23;20010;-80
2022/06/08 10:20:32;;;;;;;4.85;4.07;;;;;;;;;;6189578;23;20008;-78
2022/06/08 10:23:19;;;;;;;5.45;3.20;;;;;;;;;;6186644;23;20462;-82
2022/06/08 10:25:48;;;;;;;4.10;3.53;;;;;;;;;;6191173;23;20339;-78
2022/06/08 10:28:37;;;;;;;3.72;3.40;;;;;;;;;;6138273;23;20429;-78
2022/06/08 10:31:05;;;;;;;5.80;4.50;;;;;;;;;;6163803;23;20016;-79
2022/06/08 10:33:49;;;;;;;6.13;3.75;;;;;;;;;;6214325;23;20627;-79
2022/06/08 10:36:15;;;;;;;10.93;6.35;;;;;;;;;;6186023;23;20009;-76
2022/06/08 10:38:44;;;;;;;7.15;5.22;;;;;;;;;;6210584;23;20012;-80
2022/06/08 10:42:39;;;;;;;;;;;;;;;;;;6180546;23;20052;-79
2022/06/08 10:43:55;;;;;;;5.53;3.70;;;;;;;;;;6204209;23;19908;-81
2022/06/08 10:46:36;;;;;;;7.50;5.50;;;;;;;;;;6205408;23;20445;-79
2022/06/08 10:49:02;;;;;;;13.50;7.15;;;;;;;;;;6155740;23;20034;-79
2022/06/08 10:51:30;;;;;;;11.43;2.40;;;;;;;;;;6180624;23;19997;-79
2022/06/08 10:56:41;;;;;;;4.75;3.47;;;;;;;;;;6210840;23;20961;-80
2022/06/08 10:59:07;;;;;;;6.43;3.75;;;;;;;;;;6210713;23;20292;-78
2022/06/08 11:01:34;;;;;;;4.43;2.80;;;;;;;;;;6210748;23;20064;-79
2022/06/08 11:04:01;;;;;;;3.58;2.50;;;;;;;;;;6214367;23;20001;-79
2022/06/08 11:06:45;;;;;;;4.57;2.42;;;;;;;;;;6188055;23;20009;-79
2022/06/08 11:09:25;;;;;;;4.20;2.45;;;;;;;;;;6211139;23;20095;-78
2022/06/08 11:11:50;;;;;;;3.60;2.55;;;;;;;;;;6161357;23;20005;-80
2022/06/08 11:14:28;;;;;;;4.90;2.60;;;;;;;;;;6136848;23;20597;-79
2022/06/08 11:16:55;;;;;;;4.45;3.00;;;;;;;;;;6186539;23;20001;-79
2022/06/08 11:19:20;;;;;;;4.75;2.70;;;;;;;;;;6161553;23;20028;-79
2022/06/08 11:21:57;;;;;;;5.10;2.95;;;;;;;;;;6137558;23;20486;-79
2022/06/08 11:24:33;;;;;;;6.32;2.90;;;;;;;;;;6212540;23;20009;-80
2022/06/08 11:27:11;;;;;;;4.97;2.90;;;;;;;;;;6187213;23;20001;-78
2022/06/08 11:29:41;;;;;;;4.03;3.10;;;;;;;;;;6214651;23;20015;-79
2022/06/08 11:32:34;;;;;;;5.68;3.35;;;;;;;;;;6188125;23;20555;-79
2022/06/08 11:35:22;;;;;;;4.93;3.03;;;;;;;;;;6209601;23;20005;-78
2022/06/08 11:38:13;;;;;;;3.70;3.17;;;;;;;;;;6209767;23;20007;-79
2022/06/08 11:40:39;;;;;;;4.25;3.20;;;;;;;;;;6188474;23;20404;-80
2022/06/08 11:43:13;;;;;;;4.55;3.05;;;;;;;;;;6182612;23;20008;-79
2022/06/08 11:45:40;;;;;;;4.97;3.05;;;;;;;;;;6211249;23;20005;-79
2022/06/08 11:48:15;;;;;;;7.80;5.68;;;;;;;;;;6211841;23;20004;-79
2022/06/08 11:50:47;;;;;;;10.48;4.75;;;;;;;;;;6188664;23;20004;-79
2022/06/08 11:53:31;;;;;;;9.85;4.60;;;;;;;;;;6186349;23;20054;-80
2022/06/08 11:56:29;;;;;;;12.35;5.88;;;;;;;;;;6224174;22;20084;-79
2022/06/08 11:59:01;;;;;;;16.02;11.10;;;;;;;;;;6185851;23;20095;-79
2022/06/08 12:01:44;;;;;;;7.47;3.17;;;;;;;;;;6187076;23;20442;-79
2022/06/08 12:04:19;;;;;;;10.45;7.45;;;;;;;;;;6190830;23;20020;-79
2022/06/08 12:06:45;;;;;;;7.25;5.75;;;;;;;;;;6213165;23;20007;-78
2022/06/08 12:09:20;;;;;;;11.90;9.02;;;;;;;;;;6215198;23;20004;-79
2022/06/08 12:11:55;;;;;;;7.13;3.00;;;;;;;;;;6189929;23;20005;-79
2022/06/08 12:14:32;;;;;;;7.95;4.68;;;;;;;;;;6212530;23;20058;-79
2022/06/08 12:17:10;;;;;;;6.63;3.92;;;;;;;;;;6187895;23;20004;-79
2022/06/08 12:19:55;;;;;;;8.45;3.97;;;;;;;;;;6213456;23;20001;-79
2022/06/08 12:22:26;;;;;;;4.50;3.40;;;;;;;;;;6213972;23;20208;-79
2022/06/08 12:25:09;;;;;;;4.68;3.55;;;;;;;;;;6213243;23;20071;-79
2022/06/08 12:27:54;;;;;;;5.43;3.60;;;;;;;;;;6214934;23;20339;-79
2022/06/08 12:30:30;;;;;;;20.83;14.48;;;;;;;;;;6214663;23;20343;-80
2022/06/08 12:33:01;;;;;;;5.97;3.35;;;;;;;;;;6212480;23;20028;-79
2022/06/08 12:35:40;;;;;;;5.68;4.57;;;;;;;;;;6189168;23;20004;-80
2022/06/08 12:38:13;;;;;;;6.40;4.20;;;;;;;;;;6189283;23;20070;-80
2022/06/08 12:40:39;;;;;;;4.78;3.05;;;;;;;;;;6214492;23;20418;-80
2022/06/08 12:43:11;;;;;;;5.35;3.63;;;;;;;;;;6214785;23;20004;-80
2022/06/08 12:45:41;;;;;;;8.77;4.47;;;;;;;;;;6215080;23;20008;-79
2022/06/08 12:48:37;;;;;;;7.05;4.30;;;;;;;;;;6215792;23;20015;-79
2022/06/08 12:51:37;;;;;;;8.65;5.07;;;;;;;;;;6215988;23;20004;-81
2022/06/08 12:54:20;;;;;;;13.10;6.63;;;;;;;;;;6218496;23;20090;-80
2022/06/08 12:56:49;;;;;;;9.63;5.63;;;;;;;;;;6215217;23;20001;-79
2022/06/08 12:59:14;;;;;;;7.40;4.78;;;;;;;;;;6217182;23;20011;-79
2022/06/08 13:01:44;;;;;;;9.43;4.75;;;;;;;;;;6218129;23;20008;-78
2022/06/08 13:04:15;;;;;;;9.57;5.57;;;;;;;;;;6226388;23;20076;-79
2022/06/08 13:06:40;;;;;;;8.13;4.75;;;;;;;;;;6234324;23;20028;-79
2022/06/08 13:09:09;;;;;;;6.15;4.20;;;;;;;;;;6237066;23;20051;-80
2022/06/08 13:11:34;;;;;;;26.70;15.98;;;;;;;;;;6238434;23;20000;-79
2022/06/08 13:14:00;;;;;;;11.85;6.38;;;;;;;;;;6241764;22;20019;-79
2022/06/08 13:16:28;;;;;;;7.68;5.57;;;;;;;;;;6240215;22;19992;-80
2022/06/08 13:18:55;;;;;;;12.43;6.00;;;;;;;;;;6188199;23;20005;-79
2022/06/08 13:21:20;;;;;;;5.25;3.10;;;;;;;;;;6241508;22;20247;-78
2022/06/08 13:23:46;;;;;;;8.70;5.13;;;;;;;;;;6239801;23;20032;-79
2022/06/08 13:26:19;;;;;;;4.72;3.20;;;;;;;;;;6220527;23;20001;-78
2022/06/08 13:28:44;;;;;;;8.23;3.13;;;;;;;;;;6213647;23;20007;-78
2022/06/08 13:31:10;;;;;;;16.63;9.45;;;;;;;;;;6163539;23;20009;-78
2022/06/08 13:36:19;;;;;;;17.35;6.53;;;;;;;;;;6214296;23;20056;-77
2022/06/08 13:38:46;;;;;;;7.53;5.07;;;;;;;;;;6214530;23;20028;-78
2022/06/08 13:41:14;;;;;;;5.22;3.88;;;;;;;;;;6214666;23;20069;-80
2022/06/08 13:43:40;;;;;;;7.88;5.45;;;;;;;;;;6188937;23;20032;-80
2022/06/08 13:46:08;;;;;;;9.30;5.35;;;;;;;;;;6188396;23;20008;-79
2022/06/08 13:48:33;;;;;;;11.80;5.18;;;;;;;;;;6212153;23;20055;-80
2022/06/08 13:51:00;;;;;;;6.72;4.03;;;;;;;;;;6187714;23;20379;-79
2022/06/08 13:53:27;;;;;;;5.60;3.53;;;;;;;;;;6213946;23;20004;-79
2022/06/08 13:55:55;;;;;;;5.78;4.00;;;;;;;;;;6214497;23;20000;-81
2022/06/08 13:58:24;;;;;;;3.72;3.33;;;;;;;;;;6214807;23;20058;-77
2022/06/08 14:00:56;;;;;;;4.10;3.70;;;;;;;;;;6188464;23;20087;-79
2022/06/08 14:03:36;;;;;;;3.42;3.13;;;;;;;;;;6214256;23;20034;-78
2022/06/08 14:14:18;;;;;;;16.67;9.55;;;;;;;;;;6213719;23;20043;-80
2022/06/08 14:16:47;;;;;;;14.07;9.52;;;;;;;;;;6187482;23;20099;-79
2022/06/08 14:19:32;;;;;;;12.38;7.50;;;;;;;;;;6163568;23;20114;-79
2022/06/08 14:21:59;;;;;;;9.75;6.32;;;;;;;;;;6214018;23;20126;-79
2022/06/08 14:24:28;;;;;;;8.25;6.63;;;;;;;;;;6213868;23;20098;-80
2022/06/08 14:26:54;;;;;;;7.10;5.72;;;;;;;;;;6214085;23;20005;-80
2022/06/08 14:29:20;;;;;;;12.77;7.78;;;;;;;;;;6213978;23;20071;-79
2022/06/08 14:31:46;;;;;;;12.32;6.03;;;;;;;;;;6213765;23;20072;-79
2022/06/08 14:34:29;;;;;;;12.98;7.45;;;;;;;;;;6162895;23;20443;-79
2022/06/08 14:36:57;;;;;;;6.22;4.97;;;;;;;;;;6212686;23;19997;-78
2022/06/08 14:39:26;;;;;;;12.18;5.88;;;;;;;;;;6213873;23;20000;-79
2022/06/08 14:41:52;;;;;;;10.52;4.28;;;;;;;;;;6187821;23;20000;-79
2022/06/08 14:44:19;;;;;;;10.80;5.50;;;;;;;;;;6212363;23;20007;-78
2022/06/08 14:46:45;;;;;;;9.73;5.90;;;;;;;;;;6212305;23;20047;-79
2022/06/08 14:49:15;;;;;;;7.20;4.95;;;;;;;;;;6162791;23;20355;-78
2022/06/08 14:51:40;;;;;;;6.55;5.57;;;;;;;;;;6214017;23;20158;-79
2022/06/08 14:54:09;;;;;;;8.85;4.78;;;;;;;;;;6213722;23;20004;-78
2022/06/08 14:56:36;;;;;;;7.18;4.25;;;;;;;;;;6188452;23;20005;-82
2022/06/08 14:59:17;;;;;;;7.40;3.50;;;;;;;;;;6214152;23;20005;-81
2022/06/08 15:01:43;;;;;;;4.43;4.00;;;;;;;;;;6212160;23;20398;-81
2022/06/08 15:04:12;;;;;;;6.65;3.63;;;;;;;;;;6213830;23;20444;-80
2022/06/08 15:06:37;;;;;;;7.00;3.25;;;;;;;;;;6138346;23;20011;-80
2022/06/08 15:09:03;;;;;;;4.32;3.13;;;;;;;;;;6213962;23;20028;-79
2022/06/08 15:14:21;;;;;;;4.00;3.60;;;;;;;;;;6213591;23;20095;-81
2022/06/08 15:16:47;;;;;;;4.55;3.53;;;;;;;;;;6162684;23;20084;-81
2022/06/08 15:19:26;;;;;;;4.88;3.08;;;;;;;;;;6187287;23;20001;-79
2022/06/08 15:22:04;;;;;;;7.45;3.85;;;;;;;;;;6187635;23;20004;-84
2022/06/08 15:24:32;;;;;;;8.65;4.03;;;;;;;;;;6164187;23;20004;-83
2022/06/08 15:27:12;;;;;;;8.50;3.60;;;;;;;;;;6163564;23;20013;-82
2022/06/08 15:29:38;;;;;;;5.97;3.42;;;;;;;;;;6166378;23;20016;-82
2022/06/08 15:32:04;;;;;;;6.10;3.55;;;;;;;;;;6189006;23;20420;-83
2022/06/08 15:34:32;;;;;;;3.78;3.38;;;;;;;;;;6189204;23;20001;-82
2022/06/08 15:37:01;;;;;;;9.95;3.72;;;;;;;;;;6164500;23;20036;-83
2022/06/08 15:39:29;;;;;;;6.80;3.58;;;;;;;;;;6216035;23;20000;-83
2022/06/08 15:41:55;;;;;;;5.55;3.70;;;;;;;;;;6189069;23;20474;-83
2022/06/08 15:44:22;;;;;;;8.73;3.55;;;;;;;;;;6139864;23;20044;-83
2022/06/08 15:46:48;;;;;;;4.85;3.42;;;;;;;;;;6188941;23;20423;-83
2022/06/08 15:49:15;;;;;;;7.97;3.70;;;;;;;;;;6164444;23;20098;-85
2022/06/08 15:51:41;;;;;;;3.90;3.60;;;;;;;;;;6140355;23;20007;-83
2022/06/08 15:54:09;;;;;;;6.70;3.80;;;;;;;;;;6187799;23;20083;-84
2022/06/08 15:56:37;;;;;;;10.98;4.03;;;;;;;;;;6164754;23;20004;-84
2022/06/08 15:59:17;;;;;;;8.35;3.97;;;;;;;;;;6164555;23;20028;-85
2022/06/08 16:01:42;;;;;;;7.53;3.88;;;;;;;;;;6141452;23;20005;-83
2022/06/08 16:04:10;;;;;;;8.02;3.63;;;;;;;;;;6166740;23;20581;-83
2022/06/08 16:06:36;;;;;;;8.13;4.03;;;;;;;;;;6214168;23;20016;-83
2022/06/08 16:09:01;;;;;;;7.63;3.70;;;;;;;;;;6215466;23;20395;-83
2022/06/08 16:11:27;;;;;;;9.30;3.85;;;;;;;;;;6215617;23;20506;-83
2022/06/08 16:14:06;;;;;;;8.65;3.80;;;;;;;;;;6213317;23;20023;-84
2022/06/08 16:16:32;;;;;;;10.75;4.28;;;;;;;;;;6214239;23;20012;-83
2022/06/08 16:18:57;;;;;;;6.43;3.80;;;;;;;;;;6215259;23;20019;-83
2022/06/08 16:21:24;;;;;;;6.38;3.80;;;;;;;;;;6213720;23;20008;-83
2022/06/08 16:23:52;;;;;;;13.95;3.97;;;;;;;;;;6215661;23;20001;-83
2022/06/08 16:26:18;;;;;;;9.18;4.20;;;;;;;;;;6217178;23;20001;-83
2022/06/08 16:28:44;;;;;;;7.47;4.15;;;;;;;;;;6219190;23;20012;-82